createdAt,value
2018-10-19T00:00:35.514Z,11.17
2018-10-19T00:03:13.736Z,9.03
2018-10-19T00:05:50.715Z,9.30
2018-10-19T00:08:27.969Z,8.03
2018-10-19T00:11:06.920Z,10.30
2018-10-19T00:13:45.809Z,13.17
2018-10-19T00:16:25.027Z,9.37
2018-10-19T00:19:02.260Z,10.57
2018-10-19T00:21:41.550Z,13.53
2018-10-19T00:24:19.461Z,11.60
2018-10-19T00:26:58.393Z,13.10
2018-10-19T00:29:35.446Z,9.80
2018-10-19T00:32:13.374Z,8.03
2018-10-19T00:41:52.006Z,10.13
2018-10-19T00:44:31.765Z,10.83
2018-10-19T00:47:12.054Z,14.87
2018-10-19T00:49:48.587Z,10.60
2018-10-19T00:52:24.901Z,14.90
2018-10-19T00:55:03.974Z,8.73
2018-10-19T00:57:41.593Z,9.63
2018-10-19T01:00:19.586Z,12.43
2018-10-19T01:02:59.051Z,11.83
2018-10-19T01:05:38.520Z,10.60
2018-10-19T01:08:14.840Z,11.37
2018-10-19T01:10:52.610Z,10.30
2018-10-19T01:13:29.949Z,9.53
2018-10-19T01:16:08.860Z,9.50
2018-10-19T01:18:46.596Z,9.20
2018-10-19T01:21:25.601Z,13.50
2018-10-19T01:24:01.957Z,10.27
2018-10-19T01:26:38.654Z,17.17
2018-10-19T01:29:17.638Z,14.77
2018-10-19T01:31:57.829Z,9.33
2018-10-19T01:34:35.687Z,10.87
2018-10-19T01:37:11.929Z,14.27
2018-10-19T01:39:50.102Z,12.83
2018-10-19T01:42:28.930Z,12.83
2018-10-19T01:45:08.562Z,11.40
2018-10-19T01:47:46.847Z,16.90
2018-10-19T01:50:25.357Z,18.03
2018-10-19T01:53:02.488Z,13.03
2018-10-19T01:55:38.641Z,10.30
2018-10-19T01:58:17.217Z,9.93
2018-10-19T02:00:53.919Z,14.93
2018-10-19T02:03:29.870Z,19.83
2018-10-19T02:06:07.496Z,14.43
2018-10-19T02:08:45.659Z,15.83
2018-10-19T02:11:22.704Z,19.07
2018-10-19T02:13:59.886Z,12.10
2018-10-19T02:16:37.481Z,14.23
2018-10-19T02:19:14.416Z,17.80
2018-10-19T02:21:51.370Z,16.90
2018-10-19T02:24:28.794Z,24.00
2018-10-19T02:27:06.557Z,17.87
2018-10-19T02:29:47.888Z,18.50
2018-10-19T02:32:24.912Z,17.30
2018-10-19T02:35:02.579Z,21.20
2018-10-19T02:37:39.869Z,16.47
2018-10-19T02:40:17.177Z,18.60
2018-10-19T02:42:54.693Z,17.47
2018-10-19T02:45:34.897Z,18.77
2018-10-19T02:48:13.830Z,20.97
2018-10-19T02:50:51.232Z,35.17
2018-10-19T02:53:29.796Z,16.90
2018-10-19T02:56:09.813Z,16.20
2018-10-19T02:58:47.787Z,17.20
2018-10-19T03:01:25.234Z,13.13
2018-10-19T03:04:02.527Z,17.83
2018-10-19T03:06:38.857Z,13.17
2018-10-19T03:09:16.705Z,12.47
2018-10-19T03:11:53.876Z,12.10
2018-10-19T03:14:30.849Z,21.43
2018-10-19T03:17:08.302Z,13.77
2018-10-19T03:19:45.757Z,15.70
2018-10-19T03:22:25.856Z,16.50
2018-10-19T03:25:03.660Z,14.20
2018-10-19T03:27:41.400Z,11.47
2018-10-19T03:30:17.715Z,16.77
2018-10-19T03:32:57.402Z,13.47
2018-10-19T03:35:35.534Z,11.13
2018-10-19T03:38:12.946Z,17.83
2018-10-19T03:40:52.287Z,11.60
2018-10-19T03:43:29.783Z,15.93
2018-10-19T03:46:07.993Z,16.20
2018-10-19T03:48:44.788Z,13.90
2018-10-19T03:51:23.465Z,12.97
2018-10-19T03:54:03.515Z,12.00
2018-10-19T03:56:40.601Z,16.23
2018-10-19T03:59:18.786Z,14.57
2018-10-19T04:01:56.941Z,13.70
2018-10-19T04:04:34.721Z,12.43
2018-10-19T04:07:17.190Z,15.60
2018-10-19T04:09:55.712Z,23.30
2018-10-19T04:12:37.026Z,13.67
2018-10-19T04:15:13.852Z,15.23
2018-10-19T04:17:51.835Z,16.60
2018-10-19T04:20:32.328Z,11.90
2018-10-19T04:23:10.564Z,22.73
2018-10-19T04:25:47.680Z,12.60
2018-10-19T04:28:24.645Z,14.10
2018-10-19T04:31:03.529Z,14.23
2018-10-19T04:33:41.614Z,12.67
2018-10-19T04:36:18.884Z,16.80
2018-10-19T04:38:56.846Z,11.80
2018-10-19T04:41:34.467Z,10.80
2018-10-19T04:44:11.862Z,15.50
2018-10-19T04:46:49.652Z,12.47
2018-10-19T04:49:26.949Z,15.70
2018-10-19T04:52:03.661Z,15.60
2018-10-19T04:54:39.899Z,12.07
2018-10-19T04:57:16.732Z,14.43
2018-10-19T04:59:54.501Z,13.43
2018-10-19T05:02:33.206Z,14.43
2018-10-19T05:05:09.772Z,15.60
2018-10-19T05:07:47.569Z,12.60
2018-10-19T05:10:23.757Z,13.63
2018-10-19T05:13:03.097Z,11.37
2018-10-19T05:15:47.080Z,18.93
2018-10-19T05:18:26.673Z,13.00
2018-10-19T05:21:04.180Z,15.57
2018-10-19T05:23:41.528Z,13.27
2018-10-19T05:26:21.484Z,13.70
2018-10-19T05:28:58.370Z,11.80
2018-10-19T05:31:35.360Z,14.80
2018-10-19T05:34:16.529Z,12.00
2018-10-19T05:36:52.728Z,19.47
2018-10-19T05:39:30.244Z,17.70
2018-10-19T05:42:07.189Z,13.77
2018-10-19T05:44:43.523Z,19.07
2018-10-19T05:47:21.343Z,20.60
2018-10-19T05:49:59.767Z,13.60
2018-10-19T05:52:38.589Z,11.23
2018-10-19T05:55:15.620Z,12.33
2018-10-19T05:57:53.551Z,15.93
2018-10-19T06:00:32.596Z,14.00
2018-10-19T06:03:09.643Z,16.63
2018-10-19T06:05:45.521Z,10.80
2018-10-19T06:08:22.659Z,16.07
2018-10-19T06:11:00.753Z,13.93
2018-10-19T06:13:36.804Z,14.80
2018-10-19T06:16:14.352Z,12.80
2018-10-19T06:18:51.513Z,17.00
2018-10-19T06:21:31.278Z,17.00
2018-10-19T06:24:10.495Z,16.77
2018-10-19T06:26:48.736Z,14.27
2018-10-19T06:29:29.741Z,16.13
2018-10-19T06:32:07.229Z,12.90
2018-10-19T06:34:43.808Z,22.00
2018-10-19T06:37:20.497Z,16.57
2018-10-19T06:39:57.624Z,13.07
2018-10-19T06:42:34.775Z,13.73
2018-10-19T06:45:11.893Z,16.37
2018-10-19T06:47:48.587Z,15.10
2018-10-19T06:50:25.676Z,13.03
2018-10-19T06:53:02.684Z,15.47
2018-10-19T06:55:40.238Z,16.23
2018-10-19T06:58:17.659Z,14.80
2018-10-19T07:00:55.886Z,22.60
2018-10-19T07:03:33.227Z,13.33
2018-10-19T07:06:12.755Z,15.40
2018-10-19T07:08:50.573Z,15.17
2018-10-19T07:11:29.113Z,14.50
2018-10-19T07:14:06.285Z,20.70
2018-10-19T07:16:43.246Z,18.10
2018-10-19T07:19:20.467Z,11.37
2018-10-19T07:21:57.276Z,20.00
2018-10-19T07:24:35.560Z,13.90
2018-10-19T07:27:13.750Z,18.03
2018-10-19T07:29:51.707Z,12.40
2018-10-19T07:32:29.880Z,20.87
2018-10-19T07:35:08.481Z,14.67
2018-10-19T07:37:45.580Z,15.50
2018-10-19T07:40:22.586Z,14.83
2018-10-19T07:42:59.963Z,16.57
2018-10-19T07:45:37.787Z,15.60
2018-10-19T07:48:14.003Z,16.53
2018-10-19T07:50:50.548Z,12.27
2018-10-19T07:53:27.544Z,18.43
2018-10-19T07:56:04.786Z,13.30
2018-10-19T07:58:43.659Z,18.93
2018-10-19T08:01:20.928Z,19.73
2018-10-19T08:03:56.758Z,22.03
2018-10-19T08:06:33.584Z,17.00
2018-10-19T08:09:12.549Z,13.67
2018-10-19T08:11:48.730Z,15.20
2018-10-19T08:14:27.905Z,14.37
2018-10-19T08:17:06.450Z,18.10
2018-10-19T08:19:43.789Z,12.58
2018-10-19T08:22:21.495Z,17.10
2018-10-19T08:24:58.363Z,11.90
2018-10-19T08:27:36.648Z,17.80
2018-10-19T08:30:13.427Z,12.53
2018-10-19T08:32:51.707Z,12.33
2018-10-19T08:35:29.360Z,20.77
2018-10-19T08:38:06.140Z,13.80
2018-10-19T08:40:43.931Z,13.17
2018-10-19T08:43:22.535Z,13.33
2018-10-19T08:46:04.679Z,21.20
2018-10-19T08:48:41.799Z,17.30
2018-10-19T08:51:18.550Z,17.60
2018-10-19T08:53:59.896Z,15.47
2018-10-19T08:56:36.529Z,19.50
2018-10-19T08:59:13.536Z,16.93
2018-10-19T09:01:50.919Z,20.87
2018-10-19T09:04:29.397Z,13.03
2018-10-19T09:07:05.974Z,16.93
2018-10-19T09:09:42.554Z,19.97
2018-10-19T09:12:19.560Z,13.43
2018-10-19T09:14:56.751Z,13.43
2018-10-19T09:17:33.464Z,13.03
2018-10-19T09:20:12.623Z,13.57
2018-10-19T09:22:49.119Z,17.43
2018-10-19T09:25:25.428Z,14.60
2018-10-19T09:28:02.594Z,14.33
2018-10-19T09:30:39.172Z,13.57
2018-10-19T09:33:15.863Z,13.53
2018-10-19T09:35:54.326Z,15.53
2018-10-19T09:38:31.358Z,18.47
2018-10-19T09:41:12.332Z,17.73
2018-10-19T09:43:51.926Z,13.90
2018-10-19T09:46:29.447Z,13.17
2018-10-19T09:49:06.178Z,13.70
2018-10-19T09:51:45.043Z,18.10
2018-10-19T09:54:21.708Z,17.13
2018-10-19T09:56:59.439Z,16.13
2018-10-19T09:59:37.707Z,19.57
2018-10-19T10:02:15.784Z,14.10
2018-10-19T10:04:58.096Z,13.13
2018-10-19T10:07:38.171Z,15.77
2018-10-19T10:10:15.089Z,23.00
2018-10-19T10:12:53.677Z,11.03
2018-10-19T10:15:31.851Z,15.43
2018-10-19T10:18:09.904Z,17.97
2018-10-19T10:20:51.831Z,17.40
2018-10-19T10:23:28.800Z,19.30
2018-10-19T10:26:05.606Z,14.60
2018-10-19T10:28:43.669Z,15.87
2018-10-19T10:31:21.425Z,16.50
2018-10-19T10:33:57.621Z,12.37
2018-10-19T10:36:33.827Z,13.53
2018-10-19T10:39:14.975Z,12.43
2018-10-19T10:41:51.877Z,14.07
2018-10-19T10:44:29.684Z,21.10
2018-10-19T10:47:06.661Z,15.07
2018-10-19T10:49:44.546Z,27.57
2018-10-19T10:52:22.358Z,15.80
2018-10-19T10:55:00.392Z,13.80
2018-10-19T10:57:37.724Z,13.67
2018-10-19T11:00:15.840Z,14.13
2018-10-19T11:02:53.347Z,17.50
2018-10-19T11:05:32.133Z,12.00
2018-10-19T11:08:10.665Z,16.67
2018-10-19T11:10:47.751Z,17.80
2018-10-19T11:13:28.500Z,18.60
2018-10-19T11:16:05.296Z,16.40
2018-10-19T11:18:44.602Z,13.70
2018-10-19T11:21:20.760Z,16.00
2018-10-19T11:23:59.074Z,23.83
2018-10-19T11:26:35.286Z,10.93
2018-10-19T11:29:11.960Z,12.60
2018-10-19T11:31:48.732Z,13.50
2018-10-19T11:34:25.331Z,15.50
2018-10-19T11:37:01.486Z,10.70
2018-10-19T11:39:48.433Z,12.23
2018-10-19T11:42:24.899Z,15.10
2018-10-19T11:45:03.589Z,10.57
2018-10-19T11:47:40.638Z,13.57
2018-10-19T11:50:16.386Z,10.33
2018-10-19T11:52:53.574Z,11.50
2018-10-19T11:55:31.053Z,11.47
2018-10-19T11:58:08.866Z,11.90
2018-10-19T12:00:45.337Z,15.80
2018-10-19T12:03:22.629Z,14.57
2018-10-19T12:05:59.525Z,14.33
2018-10-19T12:08:35.497Z,18.83
2018-10-19T12:11:12.286Z,10.97
2018-10-19T12:13:48.681Z,10.63
2018-10-19T12:16:26.317Z,13.17
2018-10-19T12:19:02.632Z,18.50
2018-10-19T12:21:40.703Z,15.63
2018-10-19T12:24:17.241Z,12.73
2018-10-19T12:26:56.316Z,13.47
2018-10-19T12:29:35.184Z,18.07
2018-10-19T12:32:12.864Z,12.60
2018-10-19T12:34:53.426Z,15.13
2018-10-19T12:37:32.582Z,16.70
2018-10-19T12:40:11.501Z,20.37
2018-10-19T12:42:48.406Z,25.70
2018-10-19T12:46:36.086Z,15.33
2018-10-19T12:49:13.854Z,12.63
2018-10-19T12:51:50.475Z,13.57
2018-10-19T12:54:28.589Z,17.00
2018-10-19T12:57:05.486Z,16.07
2018-10-19T12:59:42.756Z,11.70
2018-10-19T13:02:20.324Z,13.03
2018-10-19T13:04:57.241Z,15.53
2018-10-19T13:07:34.193Z,12.80
2018-10-19T13:10:11.246Z,10.50
2018-10-19T13:12:52.666Z,16.33
2018-10-19T13:15:29.426Z,23.33
2018-10-19T13:18:07.265Z,19.90
2018-10-19T13:20:43.389Z,27.43
2018-10-19T13:23:22.625Z,14.20
2018-10-19T13:25:59.649Z,14.77
2018-10-19T13:28:37.002Z,21.13
2018-10-19T13:31:15.358Z,12.80
2018-10-19T13:33:54.529Z,14.03
2018-10-19T13:36:34.129Z,23.53
2018-10-19T13:39:11.822Z,17.40
2018-10-19T13:41:51.473Z,18.10
2018-10-19T13:44:31.081Z,18.60
2018-10-19T13:47:08.722Z,14.10
2018-10-19T13:49:48.198Z,12.53
2018-10-19T13:52:27.537Z,16.90
2018-10-19T13:55:04.782Z,9.80
2018-10-19T13:57:42.773Z,16.50
2018-10-19T14:00:21.272Z,15.90
2018-10-19T14:03:00.387Z,15.30
2018-10-19T14:05:38.565Z,16.93
2018-10-19T14:08:18.519Z,15.60
2018-10-19T14:10:58.591Z,13.30
2018-10-19T14:13:35.324Z,15.13
2018-10-19T14:16:11.683Z,19.13
2018-10-19T14:18:49.558Z,10.60
2018-10-19T14:21:29.048Z,16.67
2018-10-19T14:24:07.792Z,11.73
2018-10-19T14:26:44.317Z,14.93
2018-10-19T14:29:23.017Z,19.30
2018-10-19T14:32:01.374Z,14.83
2018-10-19T14:34:38.934Z,13.60
2018-10-19T14:37:16.053Z,13.80
2018-10-19T14:39:55.264Z,23.30
2018-10-19T14:42:34.449Z,16.97
2018-10-19T14:45:13.107Z,12.90
2018-10-19T14:47:49.486Z,12.13
2018-10-19T14:50:26.708Z,14.53
2018-10-19T14:53:04.490Z,19.70
2018-10-19T14:55:42.216Z,12.67
2018-10-19T14:58:20.352Z,20.93
2018-10-19T15:00:56.851Z,14.77
2018-10-19T15:03:34.684Z,19.60
2018-10-19T15:06:14.231Z,17.10
2018-10-19T15:08:51.388Z,18.23
2018-10-19T15:11:28.392Z,15.17
2018-10-19T15:14:05.653Z,15.70
2018-10-19T15:16:42.568Z,14.10
2018-10-19T15:19:21.605Z,18.23
2018-10-19T15:22:00.409Z,18.90
2018-10-19T15:24:37.273Z,24.33
2018-10-19T15:27:13.830Z,13.77
2018-10-19T15:29:53.593Z,27.57
2018-10-19T15:32:32.564Z,13.10
2018-10-19T15:35:09.283Z,13.43
2018-10-19T15:37:48.678Z,18.97
2018-10-19T15:40:26.807Z,21.37
2018-10-19T15:43:06.049Z,16.57
2018-10-19T15:45:43.163Z,13.70
2018-10-19T15:48:22.564Z,17.87
2018-10-19T15:51:00.928Z,16.77
2018-10-19T15:53:40.819Z,20.03
2018-10-19T15:56:19.036Z,23.87
2018-10-19T15:58:56.386Z,22.57
2018-10-19T16:01:33.983Z,22.83
2018-10-19T16:04:11.339Z,17.80
2018-10-19T16:06:49.081Z,21.37
2018-10-19T16:09:26.840Z,26.27
2018-10-19T16:12:07.614Z,19.43
2018-10-19T16:14:46.424Z,24.87
2018-10-19T16:17:23.842Z,22.40
2018-10-19T16:20:02.957Z,21.60
2018-10-19T16:22:43.153Z,33.20
2018-10-19T16:25:22.515Z,25.40
2018-10-19T16:28:00.737Z,28.50
2018-10-19T16:30:38.764Z,26.30
2018-10-19T16:33:19.987Z,25.63
2018-10-19T16:35:59.205Z,22.47
2018-10-19T16:38:37.825Z,20.80
2018-10-19T16:41:19.136Z,21.40
2018-10-19T16:43:59.132Z,29.57
2018-10-19T16:46:36.878Z,25.17
2018-10-19T16:49:15.505Z,24.30
2018-10-19T16:51:52.161Z,27.43
2018-10-19T16:54:30.705Z,28.90
2018-10-19T16:57:07.405Z,29.40
2018-10-19T16:59:46.995Z,23.97
2018-10-19T17:02:29.023Z,17.90
2018-10-19T17:05:06.413Z,21.20
2018-10-19T17:07:45.100Z,24.47
2018-10-19T17:10:24.357Z,21.20
2018-10-19T17:13:05.172Z,18.17
2018-10-19T17:15:45.242Z,16.07
2018-10-19T17:18:21.402Z,24.87
2018-10-19T17:21:01.272Z,19.87
2018-10-19T17:23:40.177Z,18.97
2018-10-19T17:26:23.093Z,25.80
2018-10-19T17:29:03.666Z,27.83
2018-10-19T17:31:43.121Z,24.93
2018-10-19T17:34:22.148Z,21.57
2018-10-19T17:37:02.057Z,24.03
2018-10-19T17:39:40.225Z,20.63
2018-10-19T17:42:16.695Z,22.50
2018-10-19T17:44:54.181Z,22.90
2018-10-19T17:47:40.029Z,29.17
2018-10-19T17:50:18.824Z,29.07
2018-10-19T17:52:58.664Z,22.03
2018-10-19T17:55:38.314Z,26.20
2018-10-19T17:58:19.120Z,23.60
2018-10-19T18:00:55.537Z,20.53
2018-10-19T18:03:34.036Z,20.73
2018-10-19T18:06:10.908Z,17.87
2018-10-19T18:08:48.198Z,21.33
2018-10-19T18:11:26.959Z,30.13
2018-10-19T18:14:03.946Z,24.00
2018-10-19T18:16:40.026Z,19.13
2018-10-19T18:19:20.173Z,25.33
2018-10-19T18:21:57.998Z,25.60
2018-10-19T18:24:38.135Z,17.33
2018-10-19T18:27:17.157Z,18.73
2018-10-19T18:29:53.415Z,24.27
2018-10-19T18:32:32.618Z,31.80
2018-10-19T18:35:14.211Z,23.10
2018-10-19T18:37:50.967Z,20.93
2018-10-19T18:40:30.817Z,18.57
2018-10-19T18:43:08.700Z,26.30
2018-10-19T18:45:51.427Z,18.33
2018-10-19T18:48:34.789Z,23.57
2018-10-19T18:51:10.521Z,30.70
2018-10-19T18:53:51.304Z,18.40
2018-10-19T18:56:29.194Z,27.23
2018-10-19T18:59:06.782Z,21.47
2018-10-19T19:01:44.873Z,25.57
2018-10-19T19:04:25.234Z,24.27
2018-10-19T19:07:06.665Z,18.37
2018-10-19T19:09:50.269Z,32.07
2018-10-19T19:12:30.166Z,25.63
2018-10-19T19:15:11.178Z,20.67
2018-10-19T19:17:48.128Z,33.07
2018-10-19T19:20:29.889Z,22.17
2018-10-19T19:23:10.321Z,22.77
2018-10-19T19:25:56.138Z,22.63
2018-10-19T19:28:37.671Z,20.90
2018-10-19T19:31:21.225Z,22.17
2018-10-19T19:34:04.150Z,22.23
2018-10-19T19:36:44.725Z,20.47
2018-10-19T19:39:20.942Z,26.00
2018-10-19T19:42:03.409Z,23.73
2018-10-19T19:44:44.197Z,33.67
2018-10-19T19:47:30.827Z,27.43
2018-10-19T19:50:18.049Z,31.60
2018-10-19T19:52:59.670Z,28.80
2018-10-19T19:55:38.117Z,33.57
2018-10-19T19:58:18.733Z,33.53
2018-10-19T20:00:57.314Z,26.93
2018-10-19T20:03:36.134Z,32.37
2018-10-19T20:06:15.450Z,31.80
2018-10-19T20:08:53.797Z,40.83
2018-10-19T20:11:31.588Z,31.43
2018-10-19T20:14:10.698Z,26.10
2018-10-19T20:16:55.348Z,35.87
2018-10-19T20:19:35.441Z,26.20
2018-10-19T20:22:12.429Z,26.10
2018-10-19T20:24:49.884Z,27.83
2018-10-19T20:27:30.684Z,33.03
2018-10-19T20:30:11.584Z,35.50
2018-10-19T20:32:51.766Z,32.50
2018-10-19T20:35:27.888Z,39.83
2018-10-19T20:38:07.067Z,39.10
2018-10-19T20:40:43.913Z,38.87
2018-10-19T20:43:26.419Z,37.93
2018-10-19T20:46:06.053Z,35.10
2018-10-19T20:48:43.917Z,34.43
2018-10-19T20:51:22.506Z,28.03
2018-10-19T20:54:02.698Z,28.23
2018-10-19T20:56:44.066Z,34.67
2018-10-19T20:59:20.621Z,30.30
2018-10-19T21:01:58.913Z,30.30
2018-10-19T21:04:37.185Z,33.00
2018-10-19T21:07:15.891Z,37.27
2018-10-19T21:09:53.416Z,29.10
2018-10-19T21:12:30.881Z,35.83
2018-10-19T21:15:14.505Z,38.67
2018-10-19T21:17:53.702Z,40.43
2018-10-19T21:20:31.434Z,31.73
2018-10-19T21:23:11.029Z,32.83
2018-10-19T21:25:48.073Z,28.20
2018-10-19T21:28:23.865Z,27.40
2018-10-19T21:31:02.201Z,22.93
2018-10-19T21:33:40.956Z,28.67
2018-10-19T21:36:19.180Z,28.67
2018-10-19T21:38:59.133Z,37.60
2018-10-19T21:41:40.484Z,30.00
2018-10-19T21:44:17.394Z,33.73
2018-10-19T21:46:56.151Z,32.67
2018-10-19T21:49:36.221Z,22.87
2018-10-19T21:52:12.691Z,30.07
2018-10-19T21:54:57.029Z,29.00
2018-10-19T21:57:40.016Z,34.70
2018-10-19T22:00:16.746Z,28.03
2018-10-19T22:02:54.277Z,37.73
2018-10-19T22:05:34.104Z,32.73
2018-10-19T22:08:13.168Z,35.43
2018-10-19T22:10:52.200Z,32.50
2018-10-19T22:13:30.818Z,33.70
2018-10-19T22:16:08.835Z,30.13
2018-10-19T22:18:45.699Z,31.07
2018-10-19T22:21:24.365Z,37.20
2018-10-19T22:24:00.668Z,33.87
2018-10-19T22:26:36.598Z,36.63
2018-10-19T22:29:14.569Z,33.30
2018-10-19T22:31:51.332Z,26.13
2018-10-19T22:34:29.847Z,35.77
2018-10-19T22:37:07.647Z,119.17
2018-10-19T22:39:44.815Z,37.57
2018-10-19T22:42:23.049Z,29.10
2018-10-19T22:44:59.412Z,30.87
2018-10-19T22:47:36.393Z,31.17
2018-10-19T22:50:13.678Z,31.60
2018-10-19T22:52:50.801Z,28.60
2018-10-19T22:55:28.334Z,33.47
2018-10-19T22:58:05.705Z,34.93
2018-10-19T23:00:43.411Z,37.80
2018-10-19T23:03:21.373Z,42.43
2018-10-19T23:06:00.654Z,30.70
2018-10-19T23:08:38.284Z,43.23
2018-10-19T23:11:20.143Z,40.53
2018-10-19T23:13:56.483Z,38.73
2018-10-19T23:16:35.279Z,34.17
2018-10-19T23:19:11.837Z,39.10
2018-10-19T23:21:50.049Z,37.30
2018-10-19T23:24:29.447Z,38.37
2018-10-19T23:27:05.866Z,41.07
2018-10-19T23:29:43.259Z,36.23
2018-10-19T23:32:22.917Z,40.47
2018-10-19T23:34:59.887Z,38.90
2018-10-19T23:37:38.622Z,38.57
2018-10-19T23:40:16.169Z,41.80
2018-10-19T23:42:54.595Z,37.60
2018-10-19T23:45:32.625Z,36.80
2018-10-19T23:48:09.384Z,36.73
2018-10-19T23:50:46.260Z,37.60
2018-10-19T23:53:23.210Z,39.37
2018-10-19T23:56:00.666Z,39.93
2018-10-19T23:58:37.478Z,41.20
